createdAt,value
2019-02-16T00:01:35.512Z,20.50
2019-02-16T00:04:07.985Z,20.50
2019-02-16T00:06:40.803Z,20.50
2019-02-16T00:09:13.164Z,20.50
2019-02-16T00:11:45.934Z,20.50
2019-02-16T00:14:18.700Z,20.50
2019-02-16T00:16:51.410Z,20.40
2019-02-16T00:19:23.794Z,20.40
2019-02-16T00:21:56.259Z,20.40
2019-02-16T00:24:28.641Z,20.30
2019-02-16T00:27:01.098Z,20.30
2019-02-16T00:29:33.519Z,20.30
2019-02-16T00:32:05.980Z,20.30
2019-02-16T00:34:38.729Z,20.30
2019-02-16T00:37:11.154Z,20.30
2019-02-16T00:39:43.519Z,20.30
2019-02-16T00:42:15.976Z,20.30
2019-02-16T00:44:48.647Z,20.20
2019-02-16T00:47:21.002Z,20.20
2019-02-16T00:49:53.385Z,20.20
2019-02-16T00:52:25.778Z,20.20
2019-02-16T00:54:58.157Z,20.20
2019-02-16T00:57:31.528Z,20.20
2019-02-16T01:00:03.936Z,20.20
2019-02-16T01:02:36.782Z,20.20
2019-02-16T01:05:09.397Z,20.20
2019-02-16T01:07:41.729Z,20.10
2019-02-16T01:10:14.228Z,20.10
2019-02-16T01:12:46.599Z,20.10
2019-02-16T01:15:19.185Z,20.10
2019-02-16T01:17:54.144Z,20.10
2019-02-16T01:20:26.607Z,20.10
2019-02-16T01:22:59.042Z,20.00
2019-02-16T01:25:31.637Z,20.00
2019-02-16T01:28:04.106Z,20.00
2019-02-16T01:30:36.579Z,20.00
2019-02-16T01:33:17.927Z,20.00
2019-02-16T01:35:50.710Z,20.00
2019-02-16T01:38:25.722Z,20.00
2019-02-16T01:40:58.314Z,19.90
2019-02-16T01:43:36.251Z,19.90
2019-02-16T01:46:09.451Z,19.90
2019-02-16T01:48:42.024Z,19.90
2019-02-16T01:51:14.607Z,19.90
2019-02-16T01:53:47.054Z,19.90
2019-02-16T01:56:19.466Z,19.90
2019-02-16T01:58:52.392Z,19.90
2019-02-16T02:01:25.007Z,19.90
2019-02-16T02:04:01.632Z,19.80
2019-02-16T02:06:33.886Z,19.80
2019-02-16T02:09:07.703Z,19.80
2019-02-16T02:11:46.640Z,19.80
2019-02-16T02:14:22.502Z,19.80
2019-02-16T02:17:00.288Z,19.80
2019-02-16T02:19:29.345Z,19.80
2019-02-16T02:22:03.968Z,19.80
2019-02-16T02:24:37.301Z,19.80
2019-02-16T02:27:20.731Z,19.70
2019-02-16T02:29:53.286Z,19.80
2019-02-16T02:32:25.864Z,20.20
2019-02-16T02:34:58.377Z,21.10
2019-02-16T02:37:31.233Z,21.80
2019-02-16T02:40:03.698Z,22.40
2019-02-16T02:42:36.188Z,23.00
2019-02-16T02:45:13.877Z,23.40
2019-02-16T02:47:46.142Z,23.80
2019-02-16T02:50:19.227Z,24.10
2019-02-16T02:52:51.759Z,24.40
2019-02-16T02:55:24.199Z,24.70
2019-02-16T02:57:56.597Z,25.00
2019-02-16T03:00:31.671Z,25.30
2019-02-16T03:03:08.827Z,25.50
2019-02-16T03:05:42.783Z,25.70
2019-02-16T03:08:19.413Z,25.90
2019-02-16T03:10:51.756Z,26.10
2019-02-16T03:13:24.139Z,26.30
2019-02-16T03:15:56.513Z,26.50
2019-02-16T03:18:29.224Z,26.60
2019-02-16T03:21:02.034Z,25.90
2019-02-16T03:23:34.499Z,25.20
2019-02-16T03:26:12.487Z,24.60
2019-02-16T03:28:56.334Z,24.20
2019-02-16T03:32:05.693Z,23.80
2019-02-16T03:34:58.553Z,23.50
2019-02-16T03:37:52.902Z,23.20
2019-02-16T03:40:25.437Z,23.00
2019-02-16T03:42:57.804Z,22.80
2019-02-16T03:45:30.187Z,22.90
2019-02-16T03:48:02.682Z,23.80
2019-02-16T03:50:35.230Z,24.40
2019-02-16T03:53:07.578Z,25.00
2019-02-16T03:55:40.059Z,25.50
2019-02-16T03:58:12.455Z,25.80
2019-02-16T04:00:44.943Z,26.10
2019-02-16T04:03:17.288Z,26.40
2019-02-16T04:05:49.670Z,26.60
2019-02-16T04:08:22.037Z,26.80
2019-02-16T04:10:54.424Z,27.00
2019-02-16T04:13:26.877Z,27.10
2019-02-16T04:15:59.374Z,27.30
2019-02-16T04:18:31.750Z,27.40
2019-02-16T04:21:04.607Z,27.60
2019-02-16T04:23:36.955Z,27.80
2019-02-16T04:26:09.932Z,27.40
2019-02-16T04:28:42.276Z,26.70
2019-02-16T04:31:14.645Z,26.00
2019-02-16T04:33:47.002Z,25.50
2019-02-16T04:36:19.402Z,25.20
2019-02-16T04:38:51.939Z,24.90
2019-02-16T04:41:24.114Z,24.60
2019-02-16T04:43:56.288Z,24.40
2019-02-16T04:46:28.499Z,24.20
2019-02-16T04:49:00.692Z,24.00
2019-02-16T04:51:33.075Z,23.90
2019-02-16T04:54:05.371Z,23.70
2019-02-16T04:56:37.601Z,23.60
2019-02-16T04:59:09.967Z,23.50
2019-02-16T05:01:42.203Z,23.40
2019-02-16T05:04:15.119Z,23.30
2019-02-16T05:06:47.466Z,23.20
2019-02-16T05:09:19.736Z,23.20
2019-02-16T05:11:51.941Z,23.60
2019-02-16T05:14:24.148Z,24.40
2019-02-16T05:16:56.371Z,25.00
2019-02-16T05:19:28.578Z,25.60
2019-02-16T05:22:01.264Z,26.00
2019-02-16T05:24:33.859Z,26.40
2019-02-16T05:27:06.169Z,26.70
2019-02-16T05:29:38.349Z,27.00
2019-02-16T05:32:10.558Z,27.20
2019-02-16T05:34:42.725Z,27.50
2019-02-16T05:37:14.964Z,27.70
2019-02-16T05:39:47.383Z,27.90
2019-02-16T05:42:19.715Z,28.00
2019-02-16T05:44:52.075Z,27.50
2019-02-16T05:47:24.324Z,26.80
2019-02-16T05:49:56.629Z,26.20
2019-02-16T05:52:29.102Z,25.70
2019-02-16T05:55:02.384Z,25.40
2019-02-16T05:57:34.615Z,25.00
2019-02-16T06:00:09.213Z,24.80
2019-02-16T06:02:41.416Z,24.60
2019-02-16T06:05:13.642Z,24.40
2019-02-16T06:07:45.976Z,24.20
2019-02-16T06:10:18.182Z,24.10
2019-02-16T06:12:50.624Z,24.00
2019-02-16T06:15:22.815Z,23.90
2019-02-16T06:17:55.039Z,23.90
2019-02-16T06:20:27.282Z,23.70
2019-02-16T06:23:04.287Z,23.70
2019-02-16T06:25:33.507Z,23.50
2019-02-16T06:28:06.054Z,23.40
2019-02-16T06:30:38.500Z,23.30
2019-02-16T06:33:11.336Z,23.20
2019-02-16T06:35:48.112Z,23.10
2019-02-16T06:38:20.615Z,23.00
2019-02-16T06:40:53.829Z,22.90
2019-02-16T06:43:27.433Z,22.80
2019-02-16T06:46:00.959Z,22.80
2019-02-16T06:48:33.674Z,22.70
2019-02-16T06:51:06.124Z,22.60
2019-02-16T06:53:38.623Z,22.50
2019-02-16T06:56:12.214Z,22.50
2019-02-16T06:58:44.519Z,22.40
2019-02-16T07:01:17.573Z,22.40
2019-02-16T07:03:49.950Z,22.30
2019-02-16T07:06:22.154Z,22.20
2019-02-16T07:08:54.437Z,22.20
2019-02-16T07:11:26.836Z,22.20
2019-02-16T07:13:59.157Z,22.10
2019-02-16T07:16:38.557Z,22.10
2019-02-16T07:19:15.053Z,22.00
2019-02-16T07:21:47.266Z,21.90
2019-02-16T07:24:19.919Z,21.90
2019-02-16T07:26:52.222Z,21.80
2019-02-16T07:29:24.430Z,21.80
2019-02-16T07:31:56.913Z,21.80
2019-02-16T07:34:29.119Z,21.70
2019-02-16T07:37:01.442Z,21.70
2019-02-16T07:39:33.746Z,21.70
2019-02-16T07:42:06.245Z,22.00
2019-02-16T07:44:55.905Z,22.80
2019-02-16T07:47:29.437Z,23.40
2019-02-16T07:50:06.341Z,24.00
2019-02-16T07:52:39.911Z,24.50
2019-02-16T07:55:16.349Z,24.10
2019-02-16T07:57:56.241Z,23.50
2019-02-16T08:00:35.381Z,23.10
2019-02-16T08:03:27.241Z,22.80
2019-02-16T08:06:09.721Z,22.60
2019-02-16T08:08:43.255Z,22.40
2019-02-16T08:11:20.209Z,22.30
2019-02-16T08:13:53.760Z,22.10
2019-02-16T08:16:30.083Z,22.00
2019-02-16T08:19:03.718Z,22.00
2019-02-16T08:21:55.416Z,21.90
2019-02-16T08:24:35.621Z,21.80
2019-02-16T08:27:12.146Z,21.80
2019-02-16T08:29:51.538Z,21.70
2019-02-16T08:32:34.057Z,21.70
2019-02-16T08:35:13.839Z,21.60
2019-02-16T08:37:50.190Z,21.50
2019-02-16T08:40:32.724Z,21.50
2019-02-16T08:43:21.661Z,21.50
2019-02-16T08:46:07.162Z,21.40
2019-02-16T08:48:49.506Z,21.40
2019-02-16T08:51:31.906Z,21.40
2019-02-16T08:54:05.669Z,21.40
2019-02-16T08:56:41.910Z,21.30
2019-02-16T08:59:21.605Z,21.30
2019-02-16T09:02:01.574Z,21.20
2019-02-16T09:04:38.162Z,21.20
2019-02-16T09:07:11.734Z,21.20
2019-02-16T09:09:48.337Z,21.10
2019-02-16T09:12:22.082Z,21.10
2019-02-16T09:15:11.636Z,21.10
2019-02-16T09:17:48.232Z,21.00
2019-02-16T09:20:22.316Z,21.00
2019-02-16T09:23:02.055Z,21.00
2019-02-16T09:25:37.211Z,21.00
2019-02-16T09:28:22.352Z,20.90
2019-02-16T09:31:02.087Z,20.90
2019-02-16T09:33:39.076Z,20.90
2019-02-16T09:36:12.921Z,20.90
2019-02-16T09:38:49.698Z,20.90
2019-02-16T09:41:26.321Z,20.90
2019-02-16T09:44:06.417Z,20.80
2019-02-16T09:46:46.401Z,20.80
2019-02-16T09:49:26.047Z,20.80
2019-02-16T09:52:11.692Z,20.80
2019-02-16T09:54:45.426Z,20.80
2019-02-16T09:57:19.326Z,20.70
2019-02-16T09:59:53.575Z,20.80
2019-02-16T10:02:27.328Z,20.70
2019-02-16T10:05:03.973Z,20.70
2019-02-16T10:07:52.853Z,20.70
2019-02-16T10:10:29.346Z,20.70
2019-02-16T10:13:05.620Z,20.60
2019-02-16T10:15:45.138Z,20.60
2019-02-16T10:18:31.128Z,20.60
2019-02-16T10:21:10.658Z,20.60
2019-02-16T10:23:44.410Z,20.60
2019-02-16T10:26:21.885Z,20.50
2019-02-16T10:29:13.800Z,20.60
2019-02-16T10:31:47.542Z,20.50
2019-02-16T10:34:37.266Z,20.50
2019-02-16T10:37:22.972Z,20.50
2019-02-16T10:40:12.021Z,20.40
2019-02-16T10:42:51.528Z,20.40
2019-02-16T10:45:25.466Z,20.30
2019-02-16T10:48:14.942Z,20.40
2019-02-16T10:50:51.740Z,20.40
2019-02-16T10:53:25.458Z,20.30
2019-02-16T10:56:02.382Z,20.30
2019-02-16T10:58:36.114Z,20.30
2019-02-16T11:01:19.290Z,20.30
2019-02-16T11:03:53.025Z,20.30
2019-02-16T11:06:26.942Z,20.30
2019-02-16T11:09:09.198Z,20.30
2019-02-16T11:11:51.822Z,20.20
2019-02-16T11:14:25.550Z,20.20
2019-02-16T11:17:15.330Z,20.20
2019-02-16T11:19:49.158Z,20.20
2019-02-16T11:22:22.911Z,20.10
2019-02-16T11:25:11.558Z,20.10
2019-02-16T11:28:00.511Z,20.10
2019-02-16T11:30:49.129Z,20.10
2019-02-16T11:33:26.278Z,20.10
2019-02-16T11:36:00.027Z,20.10
2019-02-16T11:38:33.769Z,20.10
2019-02-16T11:41:18.791Z,20.00
2019-02-16T11:43:52.557Z,20.00
2019-02-16T11:46:41.799Z,20.00
2019-02-16T11:49:18.429Z,20.00
2019-02-16T11:51:52.185Z,19.90
2019-02-16T11:54:31.474Z,19.90
2019-02-16T11:57:14.417Z,19.90
2019-02-16T11:59:56.970Z,19.90
2019-02-16T12:02:40.182Z,19.90
2019-02-16T12:05:16.566Z,19.80
2019-02-16T12:07:54.581Z,19.80
2019-02-16T12:10:31.168Z,19.80
2019-02-16T12:13:22.878Z,19.80
2019-02-16T12:15:56.750Z,19.80
2019-02-16T12:18:30.508Z,19.80
2019-02-16T12:21:07.197Z,19.80
2019-02-16T12:23:53.282Z,19.70
2019-02-16T12:26:36.407Z,19.70
2019-02-16T12:29:16.919Z,19.70
2019-02-16T12:31:50.693Z,19.70
2019-02-16T12:34:24.399Z,19.70
2019-02-16T12:37:07.786Z,19.70
2019-02-16T12:39:41.509Z,19.70
2019-02-16T12:42:18.498Z,19.60
2019-02-16T12:45:01.007Z,19.60
2019-02-16T12:47:53.088Z,19.60
2019-02-16T12:50:45.041Z,19.60
2019-02-16T12:53:19.793Z,19.60
2019-02-16T12:56:02.246Z,19.60
2019-02-16T12:58:54.298Z,19.60
2019-02-16T13:01:34.257Z,19.50
2019-02-16T13:04:08.117Z,19.50
2019-02-16T13:06:41.856Z,19.50
2019-02-16T13:09:15.617Z,19.50
2019-02-16T13:12:05.668Z,19.50
2019-02-16T13:14:45.257Z,19.50
2019-02-16T13:17:24.897Z,19.40
2019-02-16T13:20:07.182Z,19.40
2019-02-16T13:22:41.088Z,19.40
2019-02-16T13:25:24.715Z,19.40
2019-02-16T13:28:04.817Z,19.40
2019-02-16T13:30:41.911Z,19.30
2019-02-16T13:33:21.965Z,19.30
2019-02-16T13:36:04.243Z,19.30
2019-02-16T13:38:53.667Z,19.30
2019-02-16T13:41:27.410Z,19.30
2019-02-16T13:44:03.978Z,19.30
2019-02-16T13:46:46.882Z,19.30
2019-02-16T13:49:20.798Z,19.30
2019-02-16T13:51:54.538Z,19.50
2019-02-16T13:54:34.033Z,20.10
2019-02-16T13:57:16.813Z,20.80
2019-02-16T13:59:56.950Z,21.50
2019-02-16T14:02:46.575Z,22.10
2019-02-16T14:05:27.370Z,22.50
2019-02-16T14:08:17.060Z,22.90
2019-02-16T14:11:06.424Z,23.30
2019-02-16T14:13:40.162Z,23.70
2019-02-16T14:16:19.933Z,23.90
2019-02-16T14:18:52.296Z,24.20
2019-02-16T14:21:24.630Z,24.50
2019-02-16T14:23:57.464Z,24.70
2019-02-16T14:26:29.817Z,24.90
2019-02-16T14:29:02.193Z,25.10
2019-02-16T14:31:34.817Z,25.30
2019-02-16T14:34:08.196Z,25.40
2019-02-16T14:36:40.821Z,25.60
2019-02-16T14:39:14.638Z,25.80
2019-02-16T14:41:47.108Z,25.90
2019-02-16T14:44:19.478Z,25.30
2019-02-16T14:46:51.842Z,24.60
2019-02-16T14:49:24.804Z,24.00
2019-02-16T14:51:57.160Z,23.50
2019-02-16T14:54:29.534Z,23.20
2019-02-16T14:57:02.158Z,24.00
2019-02-16T14:59:34.557Z,24.60
2019-02-16T15:02:06.937Z,25.00
2019-02-16T15:04:39.302Z,25.40
2019-02-16T15:07:11.862Z,25.70
2019-02-16T15:09:45.327Z,25.30
2019-02-16T15:12:17.802Z,24.60
2019-02-16T15:14:50.251Z,24.10
2019-02-16T15:17:22.989Z,23.60
2019-02-16T15:19:55.761Z,23.20
2019-02-16T15:22:28.259Z,22.90
2019-02-16T15:25:00.602Z,23.50
2019-02-16T15:27:32.970Z,24.20
2019-02-16T15:30:05.724Z,24.80
2019-02-16T15:32:38.373Z,25.30
2019-02-16T15:35:11.924Z,25.40
2019-02-16T15:37:44.572Z,24.80
2019-02-16T15:40:17.053Z,24.20
2019-02-16T15:42:49.418Z,23.80
2019-02-16T15:45:22.211Z,23.40
2019-02-16T15:47:54.695Z,23.00
2019-02-16T15:50:27.210Z,22.90
2019-02-16T15:52:59.591Z,23.30
2019-02-16T15:55:31.997Z,24.10
2019-02-16T15:58:04.453Z,24.70
2019-02-16T16:00:36.839Z,25.20
2019-02-16T16:03:09.591Z,25.60
2019-02-16T16:05:42.511Z,25.80
2019-02-16T16:08:19.531Z,25.10
2019-02-16T16:10:54.369Z,24.50
2019-02-16T16:13:28.431Z,24.00
2019-02-16T16:16:02.266Z,23.60
2019-02-16T16:18:41.919Z,23.30
2019-02-16T16:21:20.163Z,23.10
2019-02-16T16:23:56.894Z,22.90
2019-02-16T16:26:46.857Z,22.70
2019-02-16T16:29:20.714Z,22.60
2019-02-16T16:32:03.815Z,22.50
2019-02-16T16:34:38.543Z,23.10
2019-02-16T16:37:15.195Z,24.00
2019-02-16T16:39:51.626Z,24.60
2019-02-16T16:42:37.410Z,25.20
2019-02-16T16:45:14.392Z,25.60
2019-02-16T16:48:03.266Z,26.00
2019-02-16T16:50:43.185Z,26.30
2019-02-16T16:53:32.226Z,26.60
2019-02-16T16:56:28.459Z,26.80
2019-02-16T16:59:06.232Z,26.00
2019-02-16T17:01:46.091Z,25.30
2019-02-16T17:04:19.807Z,24.80
2019-02-16T17:07:05.571Z,24.40
2019-02-16T17:09:48.261Z,24.10
2019-02-16T17:12:22.293Z,23.80
2019-02-16T17:15:07.908Z,23.60
2019-02-16T17:17:59.765Z,23.50
2019-02-16T17:20:36.677Z,23.30
2019-02-16T17:23:10.910Z,23.10
2019-02-16T17:25:44.602Z,23.10
2019-02-16T17:28:22.645Z,23.00
2019-02-16T17:31:02.827Z,22.90
2019-02-16T17:33:39.472Z,22.80
2019-02-16T17:36:28.674Z,22.80
2019-02-16T17:39:05.889Z,22.70
2019-02-16T17:41:40.830Z,22.60
2019-02-16T17:44:14.765Z,22.60
2019-02-16T17:46:48.510Z,22.60
2019-02-16T17:49:25.141Z,22.50
2019-02-16T17:51:59.367Z,22.50
2019-02-16T17:54:42.222Z,22.50
2019-02-16T17:57:34.437Z,22.40
2019-02-16T18:00:13.515Z,22.40
2019-02-16T18:03:04.921Z,22.30
2019-02-16T18:05:53.896Z,22.30
2019-02-16T18:08:44.522Z,23.10
2019-02-16T18:11:26.966Z,23.90
2019-02-16T18:14:16.032Z,24.70
2019-02-16T18:16:49.956Z,25.30
2019-02-16T18:19:38.719Z,25.70
2019-02-16T18:22:12.454Z,26.10
2019-02-16T18:24:46.183Z,26.50
2019-02-16T18:27:28.755Z,26.80
2019-02-16T18:30:17.400Z,26.60
2019-02-16T18:33:07.126Z,25.90
2019-02-16T18:35:57.053Z,25.20
2019-02-16T18:38:31.066Z,24.80
2019-02-16T18:41:05.141Z,24.50
2019-02-16T18:43:42.035Z,24.20
2019-02-16T18:46:21.906Z,24.00
2019-02-16T18:49:11.703Z,23.80
2019-02-16T18:51:45.547Z,23.70
2019-02-16T18:54:28.761Z,23.50
2019-02-16T18:57:17.701Z,23.40
2019-02-16T18:59:51.469Z,23.40
2019-02-16T19:02:37.275Z,23.30
2019-02-16T19:05:17.341Z,23.30
2019-02-16T19:07:51.514Z,23.20
2019-02-16T19:10:28.741Z,23.20
2019-02-16T19:13:14.037Z,23.10
2019-02-16T19:16:03.860Z,23.10
2019-02-16T19:18:40.712Z,23.00
2019-02-16T19:21:14.828Z,22.90
2019-02-16T19:23:48.900Z,22.80
2019-02-16T19:26:22.651Z,22.80
2019-02-16T19:28:56.594Z,22.80
2019-02-16T19:31:39.678Z,22.70
2019-02-16T19:34:19.178Z,22.70
2019-02-16T19:36:55.837Z,22.80
2019-02-16T19:39:46.267Z,22.80
2019-02-16T19:42:20.212Z,22.90
2019-02-16T19:44:57.040Z,23.00
2019-02-16T19:47:30.906Z,23.00
2019-02-16T19:50:04.729Z,23.00
2019-02-16T19:52:38.871Z,23.00
2019-02-16T19:55:13.036Z,23.00
2019-02-16T19:57:55.820Z,22.90
2019-02-16T20:00:41.589Z,22.80
2019-02-16T20:03:31.630Z,22.80
2019-02-16T20:06:05.435Z,22.80
2019-02-16T20:08:45.020Z,22.80
2019-02-16T20:11:25.049Z,22.90
2019-02-16T20:13:58.893Z,22.90
2019-02-16T20:16:35.773Z,22.90
2019-02-16T20:19:09.534Z,23.00
2019-02-16T20:21:46.039Z,23.10
2019-02-16T20:24:31.869Z,23.00
2019-02-16T20:27:14.098Z,23.10
2019-02-16T20:29:50.635Z,23.10
2019-02-16T20:32:38.962Z,23.10
2019-02-16T20:35:24.729Z,23.10
2019-02-16T20:37:58.453Z,23.10
2019-02-16T20:40:32.212Z,23.10
2019-02-16T20:43:06.035Z,23.10
2019-02-16T20:45:42.535Z,23.10
2019-02-16T20:48:16.354Z,23.10
2019-02-16T20:51:06.353Z,23.10
2019-02-16T20:53:49.016Z,23.00
2019-02-16T20:56:23.479Z,23.00
2019-02-16T20:59:03.220Z,23.10
2019-02-16T21:01:46.362Z,23.00
2019-02-16T21:04:26.134Z,23.10
2019-02-16T21:07:17.389Z,23.10
2019-02-16T21:09:50.948Z,23.10
2019-02-16T21:12:24.541Z,23.10
2019-02-16T21:15:01.153Z,23.10
2019-02-16T21:17:41.839Z,23.10
2019-02-16T21:20:18.377Z,23.10
2019-02-16T21:22:56.811Z,23.10
2019-02-16T21:25:29.746Z,23.10
2019-02-16T21:28:18.262Z,23.10
2019-02-16T21:30:54.733Z,23.10
2019-02-16T21:33:36.323Z,23.20
2019-02-16T21:36:12.341Z,23.20
2019-02-16T21:38:45.916Z,23.30
2019-02-16T21:41:28.531Z,23.40
2019-02-16T21:44:17.047Z,23.30
2019-02-16T21:47:05.636Z,23.40
2019-02-16T21:49:39.560Z,23.40
2019-02-16T21:52:13.530Z,23.40
2019-02-16T21:54:47.132Z,23.50
2019-02-16T21:57:37.089Z,23.50
2019-02-16T22:00:12.636Z,23.50
2019-02-16T22:02:52.623Z,23.50
2019-02-16T22:05:27.197Z,23.50
2019-02-16T22:08:00.846Z,23.50
2019-02-16T22:10:50.636Z,23.60
2019-02-16T22:13:22.817Z,23.60
2019-02-16T22:15:55.048Z,23.60
2019-02-16T22:18:27.343Z,23.60
2019-02-16T22:20:59.574Z,23.60
2019-02-16T22:23:31.822Z,23.50
2019-02-16T22:26:04.377Z,23.50
2019-02-16T22:28:36.538Z,23.40
2019-02-16T22:31:08.969Z,23.40
2019-02-16T22:33:41.153Z,23.40
2019-02-16T22:36:13.743Z,23.40
2019-02-16T22:38:46.301Z,23.40
2019-02-16T22:41:18.479Z,23.40
2019-02-16T22:43:50.630Z,23.40
2019-02-16T22:46:24.033Z,23.40
2019-02-16T22:48:56.294Z,23.40
2019-02-16T22:51:28.691Z,23.40
2019-02-16T22:54:00.858Z,23.30
2019-02-16T22:56:33.252Z,23.30
2019-02-16T22:59:05.800Z,23.30
2019-02-16T23:01:38.689Z,23.30
2019-02-16T23:04:11.012Z,23.30
2019-02-16T23:06:43.344Z,23.20
2019-02-16T23:09:23.107Z,23.20
2019-02-16T23:11:55.780Z,23.20
2019-02-16T23:14:28.426Z,23.20
2019-02-16T23:17:00.809Z,23.20
2019-02-16T23:19:34.374Z,23.10
2019-02-16T23:22:06.968Z,23.10
2019-02-16T23:24:39.535Z,23.10
2019-02-16T23:27:12.064Z,23.10
2019-02-16T23:29:44.624Z,23.10
2019-02-16T23:32:17.166Z,23.00
2019-02-16T23:34:49.509Z,23.00
2019-02-16T23:37:22.171Z,23.00
2019-02-16T23:39:54.632Z,22.90
2019-02-16T23:42:27.021Z,22.90
2019-02-16T23:44:59.377Z,22.90
2019-02-16T23:47:31.960Z,22.90
2019-02-16T23:50:04.386Z,22.80
2019-02-16T23:52:36.758Z,22.80
2019-02-16T23:55:13.441Z,22.80
2019-02-16T23:57:45.827Z,22.80
